sensor_id;sensor_type;location;lat;lon;timestamp;P1;durP1;ratioP1;P2;durP2;ratioP2
7495;SDS011;3789;47.064;15.482;2023-03-01T00:01:23;23.23;;;14.53;;
7495;SDS011;3789;47.064;15.482;2023-03-01T00:03:55;19.63;;;13.77;;
7495;SDS011;3789;47.064;15.482;2023-03-01T00:06:23;24.53;;;15.13;;
7495;SDS011;3789;47.064;15.482;2023-03-01T00:08:51;20.97;;;15.27;;
7495;SDS011;3789;47.064;15.482;2023-03-01T00:13:48;24.27;;;15.73;;
7495;SDS011;3789;47.064;15.482;2023-03-01T00:16:19;23.80;;;14.57;;
7495;SDS011;3789;47.064;15.482;2023-03-01T00:18:49;20.90;;;14.17;;
7495;SDS011;3789;47.064;15.482;2023-03-01T00:21:17;19.70;;;13.30;;
7495;SDS011;3789;47.064;15.482;2023-03-01T00:23:48;21.43;;;15.00;;
7495;SDS011;3789;47.064;15.482;2023-03-01T00:26:17;20.83;;;13.87;;
7495;SDS011;3789;47.064;15.482;2023-03-01T00:28:46;23.63;;;15.93;;
7495;SDS011;3789;47.064;15.482;2023-03-01T00:31:15;21.50;;;14.80;;
7495;SDS011;3789;47.064;15.482;2023-03-01T00:33:48;21.53;;;13.07;;
7495;SDS011;3789;47.064;15.482;2023-03-01T00:36:18;22.43;;;14.27;;
7495;SDS011;3789;47.064;15.482;2023-03-01T00:38:46;21.83;;;13.83;;
7495;SDS011;3789;47.064;15.482;2023-03-01T00:41:15;23.20;;;15.50;;
7495;SDS011;3789;47.064;15.482;2023-03-01T00:43:44;24.63;;;15.53;;
7495;SDS011;3789;47.064;15.482;2023-03-01T00:46:13;21.17;;;14.07;;
7495;SDS011;3789;47.064;15.482;2023-03-01T00:48:43;23.60;;;16.37;;
7495;SDS011;3789;47.064;15.482;2023-03-01T00:51:15;22.60;;;15.50;;
7495;SDS011;3789;47.064;15.482;2023-03-01T00:53:42;21.33;;;14.47;;
7495;SDS011;3789;47.064;15.482;2023-03-01T00:56:11;21.40;;;13.43;;
7495;SDS011;3789;47.064;15.482;2023-03-01T00:58:39;21.77;;;14.17;;
7495;SDS011;3789;47.064;15.482;2023-03-01T01:01:08;23.90;;;16.53;;
7495;SDS011;3789;47.064;15.482;2023-03-01T01:03:47;22.43;;;14.23;;
7495;SDS011;3789;47.064;15.482;2023-03-01T01:06:24;15.57;;;11.50;;
7495;SDS011;3789;47.064;15.482;2023-03-01T01:08:53;18.23;;;13.23;;
7495;SDS011;3789;47.064;15.482;2023-03-01T01:11:22;21.30;;;14.87;;
7495;SDS011;3789;47.064;15.482;2023-03-01T01:13:51;22.00;;;14.63;;
7495;SDS011;3789;47.064;15.482;2023-03-01T01:16:19;23.60;;;15.80;;
7495;SDS011;3789;47.064;15.482;2023-03-01T01:18:48;23.07;;;14.20;;
7495;SDS011;3789;47.064;15.482;2023-03-01T01:21:17;22.13;;;14.97;;
7495;SDS011;3789;47.064;15.482;2023-03-01T01:23:47;21.63;;;14.40;;
7495;SDS011;3789;47.064;15.482;2023-03-01T01:26:16;16.37;;;11.93;;
7495;SDS011;3789;47.064;15.482;2023-03-01T01:28:46;23.07;;;15.83;;
7495;SDS011;3789;47.064;15.482;2023-03-01T01:31:14;20.63;;;14.17;;
7495;SDS011;3789;47.064;15.482;2023-03-01T01:33:42;23.03;;;15.10;;
7495;SDS011;3789;47.064;15.482;2023-03-01T01:36:10;18.00;;;12.70;;
7495;SDS011;3789;47.064;15.482;2023-03-01T01:38:38;17.80;;;12.00;;
7495;SDS011;3789;47.064;15.482;2023-03-01T01:41:06;19.10;;;12.63;;
7495;SDS011;3789;47.064;15.482;2023-03-01T01:43:35;19.77;;;13.30;;
7495;SDS011;3789;47.064;15.482;2023-03-01T01:46:05;18.70;;;12.90;;
7495;SDS011;3789;47.064;15.482;2023-03-01T01:48:41;18.77;;;12.37;;
7495;SDS011;3789;47.064;15.482;2023-03-01T01:51:16;20.50;;;13.30;;
7495;SDS011;3789;47.064;15.482;2023-03-01T01:53:51;21.30;;;13.80;;
7495;SDS011;3789;47.064;15.482;2023-03-01T01:56:24;18.03;;;12.23;;
7495;SDS011;3789;47.064;15.482;2023-03-01T01:58:53;19.67;;;13.47;;
7495;SDS011;3789;47.064;15.482;2023-03-01T02:01:22;21.37;;;13.63;;
7495;SDS011;3789;47.064;15.482;2023-03-01T02:03:49;20.30;;;13.00;;
7495;SDS011;3789;47.064;15.482;2023-03-01T02:09:05;18.13;;;11.63;;
7495;SDS011;3789;47.064;15.482;2023-03-01T02:11:37;16.80;;;12.17;;
7495;SDS011;3789;47.064;15.482;2023-03-01T02:14:05;19.83;;;13.17;;
7495;SDS011;3789;47.064;15.482;2023-03-01T02:16:33;18.27;;;12.03;;
7495;SDS011;3789;47.064;15.482;2023-03-01T02:19:01;18.53;;;13.07;;
7495;SDS011;3789;47.064;15.482;2023-03-01T02:21:50;17.97;;;12.30;;
7495;SDS011;3789;47.064;15.482;2023-03-01T02:24:52;17.27;;;11.20;;
7495;SDS011;3789;47.064;15.482;2023-03-01T02:27:35;15.03;;;10.80;;
7495;SDS011;3789;47.064;15.482;2023-03-01T02:30:07;15.57;;;10.20;;
7495;SDS011;3789;47.064;15.482;2023-03-01T02:32:39;20.00;;;11.97;;
7495;SDS011;3789;47.064;15.482;2023-03-01T02:35:12;17.73;;;11.57;;
7495;SDS011;3789;47.064;15.482;2023-03-01T02:37:43;18.53;;;11.37;;
7495;SDS011;3789;47.064;15.482;2023-03-01T02:40:13;15.87;;;10.57;;
7495;SDS011;3789;47.064;15.482;2023-03-01T02:42:54;15.67;;;11.47;;
7495;SDS011;3789;47.064;15.482;2023-03-01T02:45:24;20.17;;;12.63;;
7495;SDS011;3789;47.064;15.482;2023-03-01T02:47:56;17.37;;;11.07;;
7495;SDS011;3789;47.064;15.482;2023-03-01T02:53:01;18.37;;;11.53;;
7495;SDS011;3789;47.064;15.482;2023-03-01T02:55:56;19.10;;;12.07;;
7495;SDS011;3789;47.064;15.482;2023-03-01T02:58:24;19.97;;;12.53;;
7495;SDS011;3789;47.064;15.482;2023-03-01T03:00:51;19.87;;;11.93;;
7495;SDS011;3789;47.064;15.482;2023-03-01T03:03:20;21.30;;;12.70;;
7495;SDS011;3789;47.064;15.482;2023-03-01T03:05:48;19.37;;;12.93;;
7495;SDS011;3789;47.064;15.482;2023-03-01T03:08:15;20.30;;;12.70;;
7495;SDS011;3789;47.064;15.482;2023-03-01T03:10:50;21.63;;;12.67;;
7495;SDS011;3789;47.064;15.482;2023-03-01T03:13:17;17.10;;;12.30;;
7495;SDS011;3789;47.064;15.482;2023-03-01T03:15:45;16.57;;;11.63;;
7495;SDS011;3789;47.064;15.482;2023-03-01T03:18:14;19.70;;;12.20;;
7495;SDS011;3789;47.064;15.482;2023-03-01T03:20:43;17.47;;;11.67;;
7495;SDS011;3789;47.064;15.482;2023-03-01T03:23:12;19.13;;;12.20;;
7495;SDS011;3789;47.064;15.482;2023-03-01T03:25:40;18.50;;;12.30;;
7495;SDS011;3789;47.064;15.482;2023-03-01T03:28:07;17.10;;;11.80;;
7495;SDS011;3789;47.064;15.482;2023-03-01T03:30:39;17.83;;;11.57;;
7495;SDS011;3789;47.064;15.482;2023-03-01T03:33:08;17.87;;;12.07;;
7495;SDS011;3789;47.064;15.482;2023-03-01T03:35:44;20.13;;;12.40;;
7495;SDS011;3789;47.064;15.482;2023-03-01T03:38:13;18.30;;;12.27;;
7495;SDS011;3789;47.064;15.482;2023-03-01T03:40:43;20.97;;;12.30;;
7495;SDS011;3789;47.064;15.482;2023-03-01T03:43:13;17.00;;;11.73;;
7495;SDS011;3789;47.064;15.482;2023-03-01T03:45:43;18.63;;;12.20;;
7495;SDS011;3789;47.064;15.482;2023-03-01T03:48:12;16.83;;;11.77;;
7495;SDS011;3789;47.064;15.482;2023-03-01T03:50:39;17.83;;;12.17;;
7495;SDS011;3789;47.064;15.482;2023-03-01T03:53:08;16.10;;;11.60;;
7495;SDS011;3789;47.064;15.482;2023-03-01T03:55:38;17.53;;;11.97;;
7495;SDS011;3789;47.064;15.482;2023-03-01T03:58:06;18.37;;;12.63;;
7495;SDS011;3789;47.064;15.482;2023-03-01T04:00:40;18.10;;;12.57;;
7495;SDS011;3789;47.064;15.482;2023-03-01T04:03:10;19.37;;;12.63;;
7495;SDS011;3789;47.064;15.482;2023-03-01T04:05:40;18.73;;;13.07;;
7495;SDS011;3789;47.064;15.482;2023-03-01T04:08:08;19.37;;;12.50;;
7495;SDS011;3789;47.064;15.482;2023-03-01T04:10:37;17.50;;;11.30;;
7495;SDS011;3789;47.064;15.482;2023-03-01T04:13:06;17.37;;;11.80;;
7495;SDS011;3789;47.064;15.482;2023-03-01T04:15:36;19.23;;;12.07;;
7495;SDS011;3789;47.064;15.482;2023-03-01T04:18:04;18.23;;;11.67;;
7495;SDS011;3789;47.064;15.482;2023-03-01T04:20:33;14.67;;;10.20;;
7495;SDS011;3789;47.064;15.482;2023-03-01T04:23:12;17.37;;;11.77;;
7495;SDS011;3789;47.064;15.482;2023-03-01T04:25:57;11.70;;;8.43;;
7495;SDS011;3789;47.064;15.482;2023-03-01T04:28:30;20.80;;;13.43;;
7495;SDS011;3789;47.064;15.482;2023-03-01T04:31:03;24.97;;;14.80;;
7495;SDS011;3789;47.064;15.482;2023-03-01T04:33:43;22.53;;;12.63;;
7495;SDS011;3789;47.064;15.482;2023-03-01T04:36:11;27.07;;;16.53;;
7495;SDS011;3789;47.064;15.482;2023-03-01T04:38:39;23.23;;;13.13;;
7495;SDS011;3789;47.064;15.482;2023-03-01T04:41:08;25.20;;;15.27;;
7495;SDS011;3789;47.064;15.482;2023-03-01T04:43:37;32.93;;;18.90;;
7495;SDS011;3789;47.064;15.482;2023-03-01T04:46:06;29.27;;;15.93;;
7495;SDS011;3789;47.064;15.482;2023-03-01T04:48:36;26.17;;;15.77;;
7495;SDS011;3789;47.064;15.482;2023-03-01T04:51:05;34.43;;;19.30;;
7495;SDS011;3789;47.064;15.482;2023-03-01T04:53:35;32.10;;;19.20;;
7495;SDS011;3789;47.064;15.482;2023-03-01T04:56:05;31.67;;;17.17;;
7495;SDS011;3789;47.064;15.482;2023-03-01T04:58:33;29.60;;;18.37;;
7495;SDS011;3789;47.064;15.482;2023-03-01T05:01:00;26.47;;;15.83;;
7495;SDS011;3789;47.064;15.482;2023-03-01T05:03:28;28.00;;;17.30;;
7495;SDS011;3789;47.064;15.482;2023-03-01T05:05:58;28.27;;;16.70;;
7495;SDS011;3789;47.064;15.482;2023-03-01T05:08:26;25.30;;;16.83;;
7495;SDS011;3789;47.064;15.482;2023-03-01T05:10:54;26.83;;;17.13;;
7495;SDS011;3789;47.064;15.482;2023-03-01T05:13:21;20.07;;;13.80;;
7495;SDS011;3789;47.064;15.482;2023-03-01T05:15:59;20.20;;;14.67;;
7495;SDS011;3789;47.064;15.482;2023-03-01T05:18:29;23.97;;;14.40;;
7495;SDS011;3789;47.064;15.482;2023-03-01T05:21:16;22.07;;;14.20;;
7495;SDS011;3789;47.064;15.482;2023-03-01T05:23:44;18.87;;;13.43;;
7495;SDS011;3789;47.064;15.482;2023-03-01T05:26:11;22.83;;;14.00;;
7495;SDS011;3789;47.064;15.482;2023-03-01T05:28:54;14.50;;;10.67;;
7495;SDS011;3789;47.064;15.482;2023-03-01T05:31:26;22.83;;;13.20;;
7495;SDS011;3789;47.064;15.482;2023-03-01T05:33:54;21.73;;;14.20;;
7495;SDS011;3789;47.064;15.482;2023-03-01T05:36:22;18.53;;;12.67;;
7495;SDS011;3789;47.064;15.482;2023-03-01T05:38:49;16.50;;;11.23;;
7495;SDS011;3789;47.064;15.482;2023-03-01T05:41:16;20.43;;;14.13;;
7495;SDS011;3789;47.064;15.482;2023-03-01T05:43:43;21.00;;;14.47;;
7495;SDS011;3789;47.064;15.482;2023-03-01T05:46:11;24.43;;;14.53;;
7495;SDS011;3789;47.064;15.482;2023-03-01T05:48:42;20.23;;;13.37;;
7495;SDS011;3789;47.064;15.482;2023-03-01T05:51:10;18.90;;;13.47;;
7495;SDS011;3789;47.064;15.482;2023-03-01T05:53:38;21.87;;;13.47;;
7495;SDS011;3789;47.064;15.482;2023-03-01T05:56:06;17.50;;;13.00;;
7495;SDS011;3789;47.064;15.482;2023-03-01T05:58:33;18.70;;;12.57;;
7495;SDS011;3789;47.064;15.482;2023-03-01T06:01:01;18.33;;;12.87;;
7495;SDS011;3789;47.064;15.482;2023-03-01T06:03:28;18.67;;;13.03;;
7495;SDS011;3789;47.064;15.482;2023-03-01T06:05:56;17.83;;;12.40;;
7495;SDS011;3789;47.064;15.482;2023-03-01T06:08:25;18.50;;;11.97;;
7495;SDS011;3789;47.064;15.482;2023-03-01T06:10:54;19.30;;;13.30;;
7495;SDS011;3789;47.064;15.482;2023-03-01T06:13:21;14.60;;;11.40;;
7495;SDS011;3789;47.064;15.482;2023-03-01T06:15:50;18.27;;;12.57;;
7495;SDS011;3789;47.064;15.482;2023-03-01T06:18:18;20.50;;;13.47;;
7495;SDS011;3789;47.064;15.482;2023-03-01T06:20:51;21.57;;;14.90;;
7495;SDS011;3789;47.064;15.482;2023-03-01T06:23:20;28.10;;;17.90;;
7495;SDS011;3789;47.064;15.482;2023-03-01T06:25:47;24.97;;;16.87;;
7495;SDS011;3789;47.064;15.482;2023-03-01T06:28:15;24.37;;;16.73;;
7495;SDS011;3789;47.064;15.482;2023-03-01T06:30:42;24.17;;;16.17;;
7495;SDS011;3789;47.064;15.482;2023-03-01T06:33:11;25.00;;;16.77;;
7495;SDS011;3789;47.064;15.482;2023-03-01T06:35:40;26.20;;;18.03;;
7495;SDS011;3789;47.064;15.482;2023-03-01T06:38:09;25.33;;;17.40;;
7495;SDS011;3789;47.064;15.482;2023-03-01T06:40:36;25.37;;;17.07;;
7495;SDS011;3789;47.064;15.482;2023-03-01T06:43:04;24.07;;;14.43;;
7495;SDS011;3789;47.064;15.482;2023-03-01T06:45:31;20.87;;;14.40;;
7495;SDS011;3789;47.064;15.482;2023-03-01T06:48:05;21.47;;;15.33;;
7495;SDS011;3789;47.064;15.482;2023-03-01T06:50:34;21.80;;;14.33;;
7495;SDS011;3789;47.064;15.482;2023-03-01T06:53:02;18.90;;;14.13;;
7495;SDS011;3789;47.064;15.482;2023-03-01T06:55:30;19.70;;;14.17;;
7495;SDS011;3789;47.064;15.482;2023-03-01T06:57:59;16.60;;;13.53;;
7495;SDS011;3789;47.064;15.482;2023-03-01T07:00:27;19.87;;;14.37;;
7495;SDS011;3789;47.064;15.482;2023-03-01T07:02:58;18.37;;;13.17;;
7495;SDS011;3789;47.064;15.482;2023-03-01T07:05:27;19.60;;;14.50;;
7495;SDS011;3789;47.064;15.482;2023-03-01T07:07:55;19.77;;;14.00;;
7495;SDS011;3789;47.064;15.482;2023-03-01T07:10:22;18.20;;;13.57;;
7495;SDS011;3789;47.064;15.482;2023-03-01T07:12:52;19.80;;;14.60;;
7495;SDS011;3789;47.064;15.482;2023-03-01T07:15:22;24.10;;;15.20;;
7495;SDS011;3789;47.064;15.482;2023-03-01T07:17:50;22.53;;;14.90;;
7495;SDS011;3789;47.064;15.482;2023-03-01T07:20:18;22.97;;;14.87;;
7495;SDS011;3789;47.064;15.482;2023-03-01T07:22:48;19.13;;;14.40;;
7495;SDS011;3789;47.064;15.482;2023-03-01T07:25:15;20.53;;;13.40;;
7495;SDS011;3789;47.064;15.482;2023-03-01T07:27:43;18.47;;;13.07;;
7495;SDS011;3789;47.064;15.482;2023-03-01T07:30:11;18.03;;;13.93;;
7495;SDS011;3789;47.064;15.482;2023-03-01T07:32:38;20.20;;;13.37;;
7495;SDS011;3789;47.064;15.482;2023-03-01T07:35:06;17.93;;;13.93;;
7495;SDS011;3789;47.064;15.482;2023-03-01T07:37:33;18.50;;;11.90;;
7495;SDS011;3789;47.064;15.482;2023-03-01T07:40:00;16.83;;;12.10;;
7495;SDS011;3789;47.064;15.482;2023-03-01T07:42:27;13.50;;;10.77;;
7495;SDS011;3789;47.064;15.482;2023-03-01T07:44:54;16.47;;;12.20;;
7495;SDS011;3789;47.064;15.482;2023-03-01T07:47:21;16.60;;;12.17;;
7495;SDS011;3789;47.064;15.482;2023-03-01T07:49:49;19.70;;;13.40;;
7495;SDS011;3789;47.064;15.482;2023-03-01T07:52:16;21.40;;;14.07;;
7495;SDS011;3789;47.064;15.482;2023-03-01T07:54:44;18.70;;;13.43;;
7495;SDS011;3789;47.064;15.482;2023-03-01T07:57:11;18.63;;;13.60;;
7495;SDS011;3789;47.064;15.482;2023-03-01T07:59:38;21.00;;;12.70;;
7495;SDS011;3789;47.064;15.482;2023-03-01T08:02:05;17.53;;;13.07;;
7495;SDS011;3789;47.064;15.482;2023-03-01T08:04:34;19.33;;;13.30;;
7495;SDS011;3789;47.064;15.482;2023-03-01T08:07:04;17.80;;;13.40;;
7495;SDS011;3789;47.064;15.482;2023-03-01T08:09:34;16.57;;;11.87;;
7495;SDS011;3789;47.064;15.482;2023-03-01T08:12:03;17.47;;;12.23;;
7495;SDS011;3789;47.064;15.482;2023-03-01T08:14:32;17.40;;;13.30;;
7495;SDS011;3789;47.064;15.482;2023-03-01T08:16:59;19.67;;;13.20;;
7495;SDS011;3789;47.064;15.482;2023-03-01T08:19:29;17.43;;;11.70;;
7495;SDS011;3789;47.064;15.482;2023-03-01T08:21:57;15.87;;;12.00;;
7495;SDS011;3789;47.064;15.482;2023-03-01T08:24:25;15.07;;;11.80;;
7495;SDS011;3789;47.064;15.482;2023-03-01T08:26:52;18.10;;;12.80;;
7495;SDS011;3789;47.064;15.482;2023-03-01T08:29:20;19.40;;;12.47;;
7495;SDS011;3789;47.064;15.482;2023-03-01T08:31:48;17.77;;;12.33;;
7495;SDS011;3789;47.064;15.482;2023-03-01T08:34:15;16.90;;;12.60;;
7495;SDS011;3789;47.064;15.482;2023-03-01T08:36:44;17.17;;;12.63;;
7495;SDS011;3789;47.064;15.482;2023-03-01T08:39:14;18.17;;;12.60;;
7495;SDS011;3789;47.064;15.482;2023-03-01T08:41:43;19.90;;;13.37;;
7495;SDS011;3789;47.064;15.482;2023-03-01T08:44:13;17.87;;;12.30;;
7495;SDS011;3789;47.064;15.482;2023-03-01T08:46:43;18.23;;;12.77;;
7495;SDS011;3789;47.064;15.482;2023-03-01T08:49:13;18.20;;;12.57;;
7495;SDS011;3789;47.064;15.482;2023-03-01T08:51:42;20.03;;;13.40;;
7495;SDS011;3789;47.064;15.482;2023-03-01T08:54:10;22.37;;;13.47;;
7495;SDS011;3789;47.064;15.482;2023-03-01T08:56:40;20.63;;;14.30;;
7495;SDS011;3789;47.064;15.482;2023-03-01T08:59:07;18.10;;;12.73;;
7495;SDS011;3789;47.064;15.482;2023-03-01T09:01:35;18.27;;;12.97;;
7495;SDS011;3789;47.064;15.482;2023-03-01T09:04:03;18.67;;;13.23;;
7495;SDS011;3789;47.064;15.482;2023-03-01T09:06:32;18.73;;;13.50;;
7495;SDS011;3789;47.064;15.482;2023-03-01T09:09:00;23.00;;;13.80;;
7495;SDS011;3789;47.064;15.482;2023-03-01T09:11:29;19.90;;;12.77;;
7495;SDS011;3789;47.064;15.482;2023-03-01T09:13:56;18.30;;;13.53;;
7495;SDS011;3789;47.064;15.482;2023-03-01T09:16:24;20.13;;;13.20;;
7495;SDS011;3789;47.064;15.482;2023-03-01T09:18:52;16.33;;;11.77;;
7495;SDS011;3789;47.064;15.482;2023-03-01T09:21:21;16.43;;;11.43;;
7495;SDS011;3789;47.064;15.482;2023-03-01T09:24:05;17.27;;;11.53;;
7495;SDS011;3789;47.064;15.482;2023-03-01T09:26:39;17.30;;;12.33;;
7495;SDS011;3789;47.064;15.482;2023-03-01T09:29:06;15.90;;;11.67;;
7495;SDS011;3789;47.064;15.482;2023-03-01T09:31:36;17.23;;;11.97;;
7495;SDS011;3789;47.064;15.482;2023-03-01T09:34:05;19.10;;;12.03;;
7495;SDS011;3789;47.064;15.482;2023-03-01T09:36:33;19.70;;;12.57;;
7495;SDS011;3789;47.064;15.482;2023-03-01T09:39:01;21.05;;;14.63;;
7495;SDS011;3789;47.064;15.482;2023-03-01T09:46:53;18.03;;;12.50;;
7495;SDS011;3789;47.064;15.482;2023-03-01T09:49:24;18.27;;;12.27;;
7495;SDS011;3789;47.064;15.482;2023-03-01T09:51:59;21.00;;;13.23;;
7495;SDS011;3789;47.064;15.482;2023-03-01T09:54:26;18.13;;;12.83;;
7495;SDS011;3789;47.064;15.482;2023-03-01T09:57:16;19.23;;;12.77;;
7495;SDS011;3789;47.064;15.482;2023-03-01T09:59:50;20.33;;;13.00;;
7495;SDS011;3789;47.064;15.482;2023-03-01T10:02:37;23.20;;;14.23;;
7495;SDS011;3789;47.064;15.482;2023-03-01T10:08:19;18.73;;;13.23;;
7495;SDS011;3789;47.064;15.482;2023-03-01T10:11:03;23.07;;;14.17;;
7495;SDS011;3789;47.064;15.482;2023-03-01T10:16:13;19.57;;;13.20;;
7495;SDS011;3789;47.064;15.482;2023-03-01T10:18:44;21.40;;;13.17;;
7495;SDS011;3789;47.064;15.482;2023-03-01T10:21:15;22.43;;;13.23;;
7495;SDS011;3789;47.064;15.482;2023-03-01T10:23:47;20.07;;;14.70;;
7495;SDS011;3789;47.064;15.482;2023-03-01T10:29:10;18.90;;;12.33;;
7495;SDS011;3789;47.064;15.482;2023-03-01T10:31:43;22.40;;;13.97;;
7495;SDS011;3789;47.064;15.482;2023-03-01T10:34:20;21.70;;;14.80;;
7495;SDS011;3789;47.064;15.482;2023-03-01T10:37:12;24.53;;;13.93;;
7495;SDS011;3789;47.064;15.482;2023-03-01T10:39:56;17.93;;;12.60;;
7495;SDS011;3789;47.064;15.482;2023-03-01T10:42:33;17.97;;;12.30;;
7495;SDS011;3789;47.064;15.482;2023-03-01T10:48:14;17.30;;;11.43;;
7495;SDS011;3789;47.064;15.482;2023-03-01T10:50:46;24.37;;;14.13;;
7495;SDS011;3789;47.064;15.482;2023-03-01T10:56:11;27.60;;;16.47;;
7495;SDS011;3789;47.064;15.482;2023-03-01T10:58:58;34.03;;;19.90;;
7495;SDS011;3789;47.064;15.482;2023-03-01T11:01:32;34.20;;;21.17;;
7495;SDS011;3789;47.064;15.482;2023-03-01T11:06:33;32.10;;;19.63;;
7495;SDS011;3789;47.064;15.482;2023-03-01T11:09:13;26.63;;;16.43;;
7495;SDS011;3789;47.064;15.482;2023-03-01T11:11:52;21.13;;;12.67;;
7495;SDS011;3789;47.064;15.482;2023-03-01T11:14:22;28.70;;;19.10;;
7495;SDS011;3789;47.064;15.482;2023-03-01T11:17:01;23.03;;;14.80;;
7495;SDS011;3789;47.064;15.482;2023-03-01T11:19:31;27.07;;;18.27;;
7495;SDS011;3789;47.064;15.482;2023-03-01T11:22:02;19.60;;;13.87;;
7495;SDS011;3789;47.064;15.482;2023-03-01T11:24:37;28.17;;;17.80;;
7495;SDS011;3789;47.064;15.482;2023-03-01T11:27:14;26.90;;;16.23;;
7495;SDS011;3789;47.064;15.482;2023-03-01T11:29:54;24.90;;;16.00;;
7495;SDS011;3789;47.064;15.482;2023-03-01T11:32:26;26.13;;;16.00;;
7495;SDS011;3789;47.064;15.482;2023-03-01T11:35:04;21.97;;;14.97;;
7495;SDS011;3789;47.064;15.482;2023-03-01T11:41:25;21.17;;;15.63;;
7495;SDS011;3789;47.064;15.482;2023-03-01T11:43:33;30.27;;;18.60;;
7495;SDS011;3789;47.064;15.482;2023-03-01T11:54:29;24.30;;;16.20;;
7495;SDS011;3789;47.064;15.482;2023-03-01T12:13:43;21.77;;;14.83;;
7495;SDS011;3789;47.064;15.482;2023-03-01T12:19:11;20.50;;;14.23;;
7495;SDS011;3789;47.064;15.482;2023-03-01T12:30:17;19.80;;;14.23;;
7495;SDS011;3789;47.064;15.482;2023-03-01T12:35:33;21.97;;;14.43;;
7495;SDS011;3789;47.064;15.482;2023-03-01T12:38:13;21.60;;;14.80;;
7495;SDS011;3789;47.064;15.482;2023-03-01T12:41:31;21.40;;;15.13;;
7495;SDS011;3789;47.064;15.482;2023-03-01T12:46:31;20.07;;;14.63;;
7495;SDS011;3789;47.064;15.482;2023-03-01T12:51:40;18.17;;;13.17;;
7495;SDS011;3789;47.064;15.482;2023-03-01T12:54:19;14.40;;;11.50;;
7495;SDS011;3789;47.064;15.482;2023-03-01T12:57:18;18.67;;;13.87;;
7495;SDS011;3789;47.064;15.482;2023-03-01T13:02:41;18.13;;;13.60;;
7495;SDS011;3789;47.064;15.482;2023-03-01T13:07:58;21.20;;;13.87;;
7495;SDS011;3789;47.064;15.482;2023-03-01T13:13:31;26.30;;;15.70;;
7495;SDS011;3789;47.064;15.482;2023-03-01T13:16:19;15.27;;;11.70;;
7495;SDS011;3789;47.064;15.482;2023-03-01T13:21:49;18.77;;;13.83;;
7495;SDS011;3789;47.064;15.482;2023-03-01T13:24:28;20.77;;;14.57;;
7495;SDS011;3789;47.064;15.482;2023-03-01T13:27:21;19.00;;;12.27;;
7495;SDS011;3789;47.064;15.482;2023-03-01T13:29:57;19.90;;;14.30;;
7495;SDS011;3789;47.064;15.482;2023-03-01T13:32:30;21.00;;;13.33;;
7495;SDS011;3789;47.064;15.482;2023-03-01T13:37:45;21.50;;;12.93;;
7495;SDS011;3789;47.064;15.482;2023-03-01T13:42:45;19.07;;;12.67;;
7495;SDS011;3789;47.064;15.482;2023-03-01T13:45:36;16.77;;;11.07;;
7495;SDS011;3789;47.064;15.482;2023-03-01T13:48:17;19.57;;;13.97;;
7495;SDS011;3789;47.064;15.482;2023-03-01T13:50:54;17.17;;;12.80;;
7495;SDS011;3789;47.064;15.482;2023-03-01T13:53:33;17.70;;;11.50;;
7495;SDS011;3789;47.064;15.482;2023-03-01T13:56:13;15.87;;;12.60;;
7495;SDS011;3789;47.064;15.482;2023-03-01T13:58:48;15.80;;;10.37;;
7495;SDS011;3789;47.064;15.482;2023-03-01T14:01:26;14.80;;;10.63;;
7495;SDS011;3789;47.064;15.482;2023-03-01T14:03:56;15.87;;;11.67;;
7495;SDS011;3789;47.064;15.482;2023-03-01T14:06:25;14.20;;;11.17;;
7495;SDS011;3789;47.064;15.482;2023-03-01T14:09:16;15.77;;;11.03;;
7495;SDS011;3789;47.064;15.482;2023-03-01T14:17:50;16.13;;;11.63;;
7495;SDS011;3789;47.064;15.482;2023-03-01T14:20:32;19.40;;;11.10;;
7495;SDS011;3789;47.064;15.482;2023-03-01T14:23:10;14.47;;;10.93;;
7495;SDS011;3789;47.064;15.482;2023-03-01T14:25:52;16.57;;;10.63;;
7495;SDS011;3789;47.064;15.482;2023-03-01T14:28:28;14.93;;;11.10;;
7495;SDS011;3789;47.064;15.482;2023-03-01T14:31:00;17.90;;;12.43;;
7495;SDS011;3789;47.064;15.482;2023-03-01T14:33:30;15.23;;;11.70;;
7495;SDS011;3789;47.064;15.482;2023-03-01T14:36:11;17.77;;;11.83;;
7495;SDS011;3789;47.064;15.482;2023-03-01T14:41:10;15.30;;;11.50;;
7495;SDS011;3789;47.064;15.482;2023-03-01T14:46:24;17.97;;;12.10;;
7495;SDS011;3789;47.064;15.482;2023-03-01T14:49:02;16.13;;;11.33;;
7495;SDS011;3789;47.064;15.482;2023-03-01T14:51:37;15.17;;;11.37;;
7495;SDS011;3789;47.064;15.482;2023-03-01T14:54:19;15.77;;;11.23;;
7495;SDS011;3789;47.064;15.482;2023-03-01T14:56:53;15.27;;;10.47;;
7495;SDS011;3789;47.064;15.482;2023-03-01T14:59:25;15.60;;;10.23;;
7495;SDS011;3789;47.064;15.482;2023-03-01T15:01:55;15.97;;;10.77;;
7495;SDS011;3789;47.064;15.482;2023-03-01T15:04:24;17.00;;;11.30;;
7495;SDS011;3789;47.064;15.482;2023-03-01T15:06:54;14.97;;;10.47;;
7495;SDS011;3789;47.064;15.482;2023-03-01T15:09:32;14.77;;;10.37;;
7495;SDS011;3789;47.064;15.482;2023-03-01T15:14:56;14.67;;;9.90;;
7495;SDS011;3789;47.064;15.482;2023-03-01T15:17:33;14.40;;;9.57;;
7495;SDS011;3789;47.064;15.482;2023-03-01T15:20:05;14.30;;;10.53;;
7495;SDS011;3789;47.064;15.482;2023-03-01T15:22:43;15.93;;;11.07;;
7495;SDS011;3789;47.064;15.482;2023-03-01T15:25:21;17.27;;;10.57;;
7495;SDS011;3789;47.064;15.482;2023-03-01T15:27:51;15.27;;;9.97;;
7495;SDS011;3789;47.064;15.482;2023-03-01T15:30:25;12.70;;;9.73;;
7495;SDS011;3789;47.064;15.482;2023-03-01T15:35:51;15.23;;;10.77;;
7495;SDS011;3789;47.064;15.482;2023-03-01T15:40:56;19.37;;;12.07;;
7495;SDS011;3789;47.064;15.482;2023-03-01T15:46:15;16.00;;;10.00;;
7495;SDS011;3789;47.064;15.482;2023-03-01T15:48:47;16.47;;;12.20;;
7495;SDS011;3789;47.064;15.482;2023-03-01T15:51:21;18.63;;;13.00;;
7495;SDS011;3789;47.064;15.482;2023-03-01T15:53:54;14.40;;;11.07;;
7495;SDS011;3789;47.064;15.482;2023-03-01T15:56:22;17.97;;;12.97;;
7495;SDS011;3789;47.064;15.482;2023-03-01T15:58:50;20.93;;;13.67;;
7495;SDS011;3789;47.064;15.482;2023-03-01T16:01:17;15.70;;;10.77;;
7495;SDS011;3789;47.064;15.482;2023-03-01T16:03:44;13.93;;;10.70;;
7495;SDS011;3789;47.064;15.482;2023-03-01T16:06:12;16.40;;;11.20;;
7495;SDS011;3789;47.064;15.482;2023-03-01T16:08:40;15.23;;;11.43;;
7495;SDS011;3789;47.064;15.482;2023-03-01T16:11:13;18.13;;;12.13;;
7495;SDS011;3789;47.064;15.482;2023-03-01T16:13:44;18.73;;;13.33;;
7495;SDS011;3789;47.064;15.482;2023-03-01T16:16:12;24.07;;;12.97;;
7495;SDS011;3789;47.064;15.482;2023-03-01T16:18:43;20.07;;;13.03;;
7495;SDS011;3789;47.064;15.482;2023-03-01T16:21:15;19.73;;;12.87;;
7495;SDS011;3789;47.064;15.482;2023-03-01T16:23:46;13.43;;;8.57;;
7495;SDS011;3789;47.064;15.482;2023-03-01T16:26:14;16.70;;;12.60;;
7495;SDS011;3789;47.064;15.482;2023-03-01T16:28:42;21.87;;;14.30;;
7495;SDS011;3789;47.064;15.482;2023-03-01T16:31:10;22.27;;;15.87;;
7495;SDS011;3789;47.064;15.482;2023-03-01T16:33:38;29.57;;;18.93;;
7495;SDS011;3789;47.064;15.482;2023-03-01T16:36:07;29.73;;;18.87;;
7495;SDS011;3789;47.064;15.482;2023-03-01T16:38:36;28.03;;;18.97;;
7495;SDS011;3789;47.064;15.482;2023-03-01T16:41:04;29.20;;;18.43;;
7495;SDS011;3789;47.064;15.482;2023-03-01T16:43:32;26.03;;;17.67;;
7495;SDS011;3789;47.064;15.482;2023-03-01T16:45:59;18.93;;;12.53;;
7495;SDS011;3789;47.064;15.482;2023-03-01T16:48:26;29.33;;;18.00;;
7495;SDS011;3789;47.064;15.482;2023-03-01T16:50:58;26.00;;;16.63;;
7495;SDS011;3789;47.064;15.482;2023-03-01T16:53:25;20.67;;;14.80;;
7495;SDS011;3789;47.064;15.482;2023-03-01T16:55:57;30.07;;;19.10;;
7495;SDS011;3789;47.064;15.482;2023-03-01T16:58:24;31.53;;;21.17;;